createdAt,value
2023-02-27T00:00:41.636Z,8.74
2023-02-27T00:03:08.324Z,8.08
2023-02-27T00:05:35.017Z,8.20
2023-02-27T00:08:01.724Z,8.61
2023-02-27T00:10:28.480Z,8.47
2023-02-27T00:12:56.069Z,8.36
2023-02-27T00:15:23.465Z,8.46
2023-02-27T00:17:50.726Z,8.35
2023-02-27T00:20:18.129Z,8.14
2023-02-27T00:22:44.983Z,8.26
2023-02-27T00:25:11.898Z,8.52
2023-02-27T00:27:38.783Z,8.44
2023-02-27T00:30:06.454Z,8.48
2023-02-27T00:32:33.250Z,8.29
2023-02-27T00:34:59.957Z,7.95
2023-02-27T00:37:26.673Z,7.85
2023-02-27T00:39:53.371Z,7.96
2023-02-27T00:42:20.085Z,8.19
2023-02-27T00:44:46.720Z,8.66
2023-02-27T00:47:13.353Z,8.24
2023-02-27T00:49:40.055Z,8.45
2023-02-27T00:52:06.772Z,8.86
2023-02-27T00:54:33.411Z,8.72
2023-02-27T00:57:00.120Z,8.31
2023-02-27T00:59:26.773Z,8.59
2023-02-27T01:01:53.487Z,8.74
2023-02-27T01:04:20.168Z,8.53
2023-02-27T01:06:46.806Z,7.98
2023-02-27T01:09:13.534Z,7.91
2023-02-27T01:11:40.223Z,8.25
2023-02-27T01:14:07.000Z,8.23
2023-02-27T01:16:33.673Z,8.30
2023-02-27T01:19:00.383Z,8.51
2023-02-27T01:21:27.435Z,9.06
2023-02-27T01:23:54.242Z,9.00
2023-02-27T01:26:20.962Z,9.16
2023-02-27T01:28:47.650Z,8.44
2023-02-27T01:31:14.540Z,8.65
2023-02-27T01:33:41.177Z,8.98
2023-02-27T01:36:08.320Z,8.88
2023-02-27T01:38:34.920Z,8.72
2023-02-27T01:41:01.767Z,8.81
2023-02-27T01:43:28.518Z,8.88
2023-02-27T01:45:55.547Z,8.82
2023-02-27T01:48:41.963Z,8.70
2023-02-27T01:51:11.673Z,8.55
2023-02-27T01:53:39.186Z,8.67
2023-02-27T01:56:19.886Z,8.10
2023-02-27T01:58:46.720Z,8.04
2023-02-27T02:01:13.658Z,8.16
2023-02-27T02:03:46.483Z,8.39
2023-02-27T02:06:13.133Z,8.42
2023-02-27T02:08:44.857Z,8.12
2023-02-27T02:11:12.419Z,8.28
2023-02-27T02:13:39.407Z,8.24
2023-02-27T02:16:15.048Z,8.51
2023-02-27T02:18:55.156Z,8.15
2023-02-27T02:21:21.814Z,7.99
2023-02-27T02:23:54.489Z,8.33
2023-02-27T02:26:31.045Z,8.40
2023-02-27T02:29:37.094Z,7.56
2023-02-27T02:32:25.657Z,7.34
2023-02-27T02:35:00.412Z,7.10
2023-02-27T02:37:33.160Z,6.75
2023-02-27T02:40:16.464Z,6.32
2023-02-27T02:43:07.809Z,6.16
2023-02-27T02:45:45.500Z,5.92
2023-02-27T02:48:13.591Z,5.98
2023-02-27T02:50:46.190Z,5.89
2023-02-27T02:53:36.579Z,5.91
2023-02-27T02:56:05.185Z,6.01
2023-02-27T02:59:02.956Z,5.94
2023-02-27T03:01:50.551Z,6.19
2023-02-27T03:04:52.661Z,6.02
2023-02-27T03:07:37.498Z,5.95
2023-02-27T03:10:18.122Z,6.10
2023-02-27T03:12:47.355Z,6.00
2023-02-27T03:15:18.265Z,6.28
2023-02-27T03:17:49.984Z,6.40
2023-02-27T03:20:25.468Z,6.52
2023-02-27T03:22:55.482Z,6.48
2023-02-27T03:25:22.182Z,6.56
2023-02-27T03:28:00.808Z,6.64
2023-02-27T03:30:59.232Z,6.71
2023-02-27T03:33:35.308Z,6.65
2023-02-27T03:36:09.955Z,6.89
2023-02-27T03:38:38.192Z,6.94
2023-02-27T03:41:12.749Z,6.77
2023-02-27T03:43:50.567Z,7.10
2023-02-27T03:46:22.380Z,6.78
2023-02-27T03:48:49.003Z,6.66
2023-02-27T03:51:18.948Z,6.75
2023-02-27T03:54:05.628Z,6.82
2023-02-27T03:56:40.137Z,6.71
2023-02-27T03:59:06.999Z,6.64
2023-02-27T04:01:33.693Z,6.67
2023-02-27T04:04:06.121Z,7.03
2023-02-27T04:06:51.306Z,7.38
2023-02-27T04:09:26.490Z,7.73
2023-02-27T04:12:05.029Z,7.76
2023-02-27T04:14:49.922Z,7.57
2023-02-27T04:17:23.112Z,7.22
2023-02-27T04:20:05.025Z,7.15
2023-02-27T04:22:44.714Z,7.13
2023-02-27T04:25:48.981Z,6.98
2023-02-27T04:28:29.920Z,7.17
2023-02-27T04:31:03.092Z,7.10
2023-02-27T04:33:45.066Z,7.28
2023-02-27T04:36:37.801Z,6.97
2023-02-27T04:39:09.016Z,6.82
2023-02-27T04:41:45.549Z,7.08
2023-02-27T04:44:12.189Z,7.08
2023-02-27T04:46:39.513Z,7.12
2023-02-27T04:49:12.445Z,7.22
2023-02-27T04:51:44.853Z,7.01
2023-02-27T04:54:14.294Z,7.09
2023-02-27T04:56:44.226Z,6.99
2023-02-27T04:59:19.515Z,7.03
2023-02-27T05:02:11.957Z,6.90
2023-02-27T05:04:40.323Z,7.05
2023-02-27T05:07:09.497Z,7.06
2023-02-27T05:09:45.556Z,7.11
2023-02-27T05:12:16.585Z,7.25
2023-02-27T05:15:08.507Z,7.12
2023-02-27T05:17:38.029Z,6.93
2023-02-27T05:20:07.899Z,6.99
2023-02-27T05:22:51.644Z,7.01
2023-02-27T05:25:45.608Z,7.09
2023-02-27T05:28:36.833Z,7.16
2023-02-27T05:31:10.467Z,7.23
2023-02-27T05:33:49.257Z,7.53
2023-02-27T05:36:23.266Z,7.39
2023-02-27T05:38:51.801Z,7.45
2023-02-27T05:41:20.848Z,7.55
2023-02-27T05:43:51.986Z,7.40
2023-02-27T05:46:26.768Z,7.41
2023-02-27T05:49:15.907Z,7.36
2023-02-27T05:51:43.655Z,7.36
2023-02-27T05:54:23.470Z,7.42
2023-02-27T05:56:50.230Z,7.31
2023-02-27T05:59:31.108Z,7.45
2023-02-27T06:01:57.810Z,7.50
2023-02-27T06:04:24.544Z,7.59
2023-02-27T06:06:51.187Z,8.04
2023-02-27T06:09:17.957Z,7.96
2023-02-27T06:11:44.687Z,7.80
2023-02-27T06:14:11.481Z,7.86
2023-02-27T06:16:39.137Z,8.05
2023-02-27T06:19:06.145Z,8.04
2023-02-27T06:21:33.009Z,7.66
2023-02-27T06:23:59.675Z,7.62
2023-02-27T06:26:26.626Z,7.58
2023-02-27T06:28:53.455Z,7.45
2023-02-27T06:31:20.132Z,7.59
2023-02-27T06:33:46.808Z,7.87
2023-02-27T06:36:13.533Z,7.93
2023-02-27T06:38:40.479Z,8.22
2023-02-27T06:41:07.499Z,8.35
2023-02-27T06:43:36.550Z,8.32
2023-02-27T06:46:03.497Z,8.27
2023-02-27T06:48:30.197Z,8.45
2023-02-27T06:50:56.979Z,8.32
2023-02-27T06:53:24.330Z,8.52
2023-02-27T06:55:51.012Z,8.91
2023-02-27T06:58:17.831Z,9.21
2023-02-27T07:00:44.556Z,9.16
2023-02-27T07:03:11.184Z,9.10
2023-02-27T07:05:40.041Z,9.22
2023-02-27T07:08:06.735Z,9.40
2023-02-27T07:10:33.365Z,9.81
2023-02-27T07:13:00.090Z,9.61
2023-02-27T07:15:26.742Z,9.50
2023-02-27T07:17:54.546Z,9.10
2023-02-27T07:20:21.284Z,9.18
2023-02-27T07:22:48.377Z,9.34
2023-02-27T07:25:15.074Z,9.75
2023-02-27T07:27:44.321Z,10.10
2023-02-27T07:30:11.766Z,9.99
2023-02-27T07:32:38.477Z,10.30
2023-02-27T07:35:05.564Z,10.26
2023-02-27T07:37:32.184Z,10.26
2023-02-27T07:39:58.848Z,9.98
2023-02-27T07:42:25.547Z,10.28
2023-02-27T07:44:52.194Z,10.41
2023-02-27T07:47:18.832Z,10.49
2023-02-27T07:49:45.449Z,10.60
2023-02-27T07:52:12.198Z,10.74
2023-02-27T07:54:38.879Z,10.73
2023-02-27T07:57:05.897Z,10.54
2023-02-27T07:59:32.564Z,10.79
2023-02-27T08:01:59.314Z,10.90
2023-02-27T08:04:26.032Z,10.92
2023-02-27T08:06:52.652Z,10.87
2023-02-27T08:09:19.378Z,10.93
2023-02-27T08:11:48.756Z,10.88
2023-02-27T08:14:15.892Z,10.85
2023-02-27T08:16:42.502Z,10.80
2023-02-27T08:19:09.215Z,10.68
2023-02-27T08:21:35.885Z,11.07
2023-02-27T08:24:02.524Z,11.38
2023-02-27T08:26:29.460Z,11.44
2023-02-27T08:28:56.455Z,11.46
2023-02-27T08:31:23.639Z,11.49
2023-02-27T08:33:58.092Z,11.60
2023-02-27T08:36:34.512Z,11.54
2023-02-27T08:39:01.240Z,11.48
2023-02-27T08:41:27.853Z,11.64
2023-02-27T08:43:54.534Z,11.58
2023-02-27T08:46:21.207Z,11.72
2023-02-27T08:48:47.836Z,11.73
2023-02-27T08:51:14.526Z,11.71
2023-02-27T08:53:41.423Z,12.30
2023-02-27T08:56:08.089Z,12.37
2023-02-27T08:58:35.889Z,12.48
2023-02-27T09:01:03.278Z,12.76
2023-02-27T09:03:30.125Z,12.91
2023-02-27T09:05:56.892Z,13.26
2023-02-27T09:08:23.689Z,13.08
2023-02-27T09:10:50.426Z,13.35
2023-02-27T09:13:17.245Z,13.28
2023-02-27T09:15:44.061Z,13.15
2023-02-27T09:18:10.675Z,12.80
2023-02-27T09:20:37.298Z,13.04
2023-02-27T09:23:04.009Z,13.37
2023-02-27T09:25:30.673Z,13.30
2023-02-27T09:27:57.397Z,13.40
2023-02-27T09:30:24.093Z,13.55
2023-02-27T09:32:50.980Z,13.54
2023-02-27T09:35:20.224Z,13.59
2023-02-27T09:37:46.994Z,13.69
2023-02-27T09:40:20.596Z,13.89
2023-02-27T09:42:48.709Z,13.93
2023-02-27T09:45:23.500Z,13.66
2023-02-27T09:47:53.832Z,13.68
2023-02-27T09:50:44.298Z,14.17
2023-02-27T09:53:36.504Z,13.79
2023-02-27T09:56:29.356Z,13.47
2023-02-27T09:59:28.140Z,13.53
2023-02-27T10:02:36.719Z,13.45
2023-02-27T10:05:22.326Z,13.70
2023-02-27T10:08:15.046Z,13.66
2023-02-27T10:11:15.043Z,13.49
2023-02-27T10:14:04.867Z,13.73
2023-02-27T10:16:31.630Z,13.76
2023-02-27T10:19:03.321Z,13.59
2023-02-27T10:21:41.157Z,14.12
2023-02-27T10:24:29.780Z,14.15
2023-02-27T10:26:58.117Z,14.25
2023-02-27T10:29:29.351Z,14.37
2023-02-27T10:32:15.909Z,14.51
2023-02-27T10:34:43.397Z,14.49
2023-02-27T10:37:13.268Z,14.47
2023-02-27T10:39:48.372Z,14.77
2023-02-27T10:42:15.182Z,14.73
2023-02-27T10:44:42.123Z,14.76
2023-02-27T10:47:13.405Z,14.79
2023-02-27T10:49:40.058Z,14.67
2023-02-27T10:52:12.106Z,14.92
2023-02-27T10:54:39.018Z,15.39
2023-02-27T10:57:27.618Z,15.34
2023-02-27T10:59:56.716Z,15.16
2023-02-27T11:02:26.984Z,15.60
2023-02-27T11:04:54.423Z,15.66
2023-02-27T11:07:32.449Z,15.52
2023-02-27T11:10:16.780Z,15.76
2023-02-27T11:12:57.694Z,15.25
2023-02-27T11:15:27.067Z,15.54
2023-02-27T11:17:55.112Z,15.93
2023-02-27T11:20:39.887Z,16.14
2023-02-27T11:23:18.277Z,16.23
2023-02-27T11:25:45.061Z,16.28
2023-02-27T11:28:15.242Z,16.32
2023-02-27T11:30:42.749Z,16.65
2023-02-27T11:33:19.878Z,16.62
2023-02-27T11:35:50.944Z,16.91
2023-02-27T11:38:24.805Z,16.40
2023-02-27T11:40:54.495Z,16.67
2023-02-27T11:43:27.074Z,16.50
2023-02-27T11:46:18.999Z,16.41
2023-02-27T11:49:01.158Z,16.32
2023-02-27T11:52:12.751Z,16.62
2023-02-27T11:54:53.792Z,17.01
2023-02-27T11:57:38.203Z,17.39
2023-02-27T12:00:23.921Z,17.78
2023-02-27T12:03:02.304Z,17.62
2023-02-27T12:05:44.479Z,17.46
2023-02-27T12:08:32.847Z,17.37
2023-02-27T12:11:14.489Z,17.26
2023-02-27T12:13:43.196Z,17.57
2023-02-27T12:16:21.820Z,16.66
2023-02-27T12:18:54.264Z,16.21
2023-02-27T12:21:25.957Z,16.32
2023-02-27T12:23:57.732Z,16.39
2023-02-27T12:26:33.021Z,15.22
2023-02-27T12:29:30.665Z,15.50
2023-02-27T12:32:20.415Z,15.60
2023-02-27T12:34:57.086Z,15.45
2023-02-27T12:37:25.299Z,15.09
2023-02-27T12:39:52.873Z,14.25
2023-02-27T12:42:44.337Z,14.68
2023-02-27T12:45:26.841Z,14.68
2023-02-27T12:47:53.413Z,14.12
2023-02-27T12:50:21.467Z,14.48
2023-02-27T12:53:01.015Z,14.40
2023-02-27T12:55:31.682Z,14.26
2023-02-27T12:58:01.318Z,14.52
2023-02-27T13:00:29.901Z,14.75
2023-02-27T13:02:58.052Z,14.84
2023-02-27T13:05:32.439Z,14.77
2023-02-27T13:07:58.960Z,14.43
2023-02-27T13:10:36.858Z,14.65
2023-02-27T13:13:12.522Z,14.54
2023-02-27T13:16:13.773Z,14.95
2023-02-27T13:18:45.750Z,14.69
2023-02-27T13:21:21.408Z,14.79
2023-02-27T13:24:12.322Z,14.86
2023-02-27T13:26:41.606Z,14.83
2023-02-27T13:29:12.246Z,14.80
2023-02-27T13:32:10.345Z,14.70
2023-02-27T13:34:48.300Z,14.70
2023-02-27T13:37:15.127Z,14.85
2023-02-27T13:39:48.830Z,14.54
2023-02-27T13:42:27.697Z,14.56
2023-02-27T13:45:04.709Z,14.33
2023-02-27T13:47:31.341Z,14.31
2023-02-27T13:50:02.505Z,14.24
2023-02-27T13:52:32.693Z,14.32
2023-02-27T13:55:06.190Z,14.60
2023-02-27T13:57:38.196Z,14.45
2023-02-27T14:00:26.471Z,14.19
2023-02-27T14:03:00.375Z,13.85
2023-02-27T14:05:38.921Z,13.97
2023-02-27T14:08:15.405Z,14.20
2023-02-27T14:11:09.858Z,13.99
2023-02-27T14:13:45.648Z,13.74
2023-02-27T14:16:37.167Z,13.57
2023-02-27T14:19:15.497Z,13.63
2023-02-27T14:21:51.314Z,13.53
2023-02-27T14:24:19.459Z,13.17
2023-02-27T14:26:46.772Z,13.10
2023-02-27T14:29:31.355Z,12.98
2023-02-27T14:32:02.996Z,13.01
2023-02-27T14:34:29.615Z,12.90
2023-02-27T14:36:58.789Z,12.91
2023-02-27T14:39:43.629Z,12.84
2023-02-27T14:42:32.142Z,12.86
2023-02-27T14:44:58.858Z,12.59
2023-02-27T14:47:35.853Z,12.67
2023-02-27T14:50:04.417Z,12.43
2023-02-27T14:52:32.139Z,12.53
2023-02-27T14:55:16.990Z,12.75
2023-02-27T14:58:16.205Z,12.64
2023-02-27T15:01:09.019Z,12.13
2023-02-27T15:03:41.901Z,12.05
2023-02-27T15:06:17.904Z,11.83
2023-02-27T15:08:46.990Z,11.98
2023-02-27T15:11:18.972Z,11.78
2023-02-27T15:13:45.676Z,11.76
2023-02-27T15:16:26.594Z,11.63
2023-02-27T15:19:00.787Z,11.61
2023-02-27T15:21:29.727Z,11.71
2023-02-27T15:23:56.814Z,11.82
2023-02-27T15:26:23.537Z,11.74
2023-02-27T15:28:50.615Z,11.69
2023-02-27T15:31:24.219Z,11.72
2023-02-27T15:33:51.034Z,11.61
2023-02-27T15:36:32.165Z,11.57
2023-02-27T15:39:22.835Z,11.82
2023-02-27T15:41:52.958Z,11.64
2023-02-27T15:44:42.309Z,11.51
2023-02-27T15:47:11.221Z,11.61
2023-02-27T15:49:37.920Z,11.10
2023-02-27T15:52:16.809Z,11.15
2023-02-27T15:55:06.956Z,11.04
2023-02-27T15:57:33.677Z,10.82
2023-02-27T16:00:00.409Z,10.86
2023-02-27T16:02:29.720Z,10.53
2023-02-27T16:04:56.416Z,10.44
2023-02-27T16:07:24.767Z,10.22
2023-02-27T16:10:00.785Z,10.21
2023-02-27T16:12:36.975Z,10.22
2023-02-27T16:15:34.645Z,10.33
2023-02-27T16:18:44.840Z,10.23
2023-02-27T16:21:16.039Z,10.15
2023-02-27T16:23:42.877Z,10.19
2023-02-27T16:26:18.679Z,10.30
2023-02-27T16:28:52.783Z,10.31
2023-02-27T16:31:35.319Z,10.27
2023-02-27T16:34:13.376Z,10.39
2023-02-27T16:36:59.747Z,10.26
2023-02-27T16:39:26.630Z,10.20
2023-02-27T16:41:54.001Z,10.10
2023-02-27T16:44:21.609Z,10.14
2023-02-27T16:46:48.306Z,10.09
2023-02-27T16:49:28.488Z,9.93
2023-02-27T16:51:55.261Z,10.02
2023-02-27T16:54:22.099Z,9.78
2023-02-27T16:56:49.498Z,9.77
2023-02-27T16:59:33.690Z,9.63
2023-02-27T17:02:01.571Z,9.65
2023-02-27T17:04:28.547Z,9.85
2023-02-27T17:06:56.050Z,9.92
2023-02-27T17:09:22.964Z,9.64
2023-02-27T17:11:49.939Z,9.70
2023-02-27T17:14:17.010Z,9.89
2023-02-27T17:16:43.649Z,9.78
2023-02-27T17:19:10.324Z,9.59
2023-02-27T17:21:36.982Z,9.76
2023-02-27T17:24:03.977Z,9.66
2023-02-27T17:26:31.221Z,9.53
2023-02-27T17:28:58.598Z,9.74
2023-02-27T17:31:25.598Z,9.78
2023-02-27T17:33:53.505Z,9.91
2023-02-27T17:36:20.670Z,9.68
2023-02-27T17:38:48.873Z,9.66
2023-02-27T17:41:15.722Z,9.55
2023-02-27T17:43:42.343Z,9.56
2023-02-27T17:46:09.551Z,9.57
2023-02-27T17:48:37.008Z,9.46
2023-02-27T17:51:07.820Z,9.41
2023-02-27T17:53:34.643Z,9.32
2023-02-27T17:56:01.268Z,9.28
2023-02-27T17:58:27.965Z,9.02
2023-02-27T18:00:54.546Z,8.87
2023-02-27T18:03:21.206Z,8.58
2023-02-27T18:05:50.261Z,8.63
2023-02-27T18:08:16.940Z,8.64
2023-02-27T18:10:48.029Z,8.60
2023-02-27T18:13:16.012Z,8.72
2023-02-27T18:15:42.658Z,8.61
2023-02-27T18:18:09.389Z,8.40
2023-02-27T18:20:35.989Z,8.25
2023-02-27T18:23:03.542Z,8.23
2023-02-27T18:25:30.294Z,8.16
2023-02-27T18:27:57.009Z,8.31
2023-02-27T18:30:24.166Z,8.53
2023-02-27T18:32:50.892Z,8.41
2023-02-27T18:35:17.587Z,8.09
2023-02-27T18:37:44.243Z,7.86
2023-02-27T18:40:12.280Z,7.86
2023-02-27T18:42:39.063Z,7.77
2023-02-27T18:45:06.032Z,7.86
2023-02-27T18:47:32.782Z,7.83
2023-02-27T18:49:59.573Z,7.65
2023-02-27T18:52:26.341Z,7.31
2023-02-27T18:54:53.103Z,7.39
2023-02-27T18:57:19.869Z,7.55
2023-02-27T18:59:47.508Z,7.14
2023-02-27T19:02:14.711Z,6.93
2023-02-27T19:04:41.340Z,6.98
2023-02-27T19:07:08.577Z,7.30
2023-02-27T19:09:35.214Z,7.01
2023-02-27T19:12:01.917Z,6.88
2023-02-27T19:14:28.686Z,7.15
2023-02-27T19:16:56.633Z,7.11
2023-02-27T19:19:23.325Z,7.17
2023-02-27T19:21:50.047Z,7.30
2023-02-27T19:24:16.813Z,7.39
2023-02-27T19:26:43.491Z,6.97
2023-02-27T19:29:10.210Z,6.82
2023-02-27T19:31:36.941Z,6.60
2023-02-27T19:34:03.589Z,6.98
2023-02-27T19:36:30.918Z,6.87
2023-02-27T19:38:58.181Z,6.85
2023-02-27T19:41:25.010Z,6.44
2023-02-27T19:43:51.806Z,6.12
2023-02-27T19:46:20.447Z,6.18
2023-02-27T19:48:47.208Z,6.34
2023-02-27T19:51:14.664Z,6.60
2023-02-27T19:53:42.386Z,6.38
2023-02-27T19:56:11.482Z,6.33
2023-02-27T19:58:39.552Z,6.42
2023-02-27T20:01:06.377Z,6.39
2023-02-27T20:03:33.398Z,6.35
2023-02-27T20:06:00.213Z,6.32
2023-02-27T20:08:26.929Z,6.18
2023-02-27T20:11:00.973Z,6.34
2023-02-27T20:13:27.856Z,6.45
2023-02-27T20:16:02.351Z,6.32
2023-02-27T20:18:29.924Z,6.22
2023-02-27T20:21:05.379Z,6.32
2023-02-27T20:23:33.067Z,6.47
2023-02-27T20:26:00.399Z,6.50
2023-02-27T20:28:28.445Z,6.48
2023-02-27T20:30:55.081Z,6.32
2023-02-27T20:33:21.697Z,6.35
2023-02-27T20:35:48.449Z,6.05
2023-02-27T20:38:17.071Z,6.10
2023-02-27T20:40:43.724Z,6.21
2023-02-27T20:43:10.428Z,6.02
2023-02-27T20:45:40.588Z,5.79
2023-02-27T20:48:07.285Z,5.87
2023-02-27T20:50:34.435Z,5.81
2023-02-27T20:53:01.209Z,6.05
2023-02-27T20:55:27.984Z,6.08
2023-02-27T20:57:54.662Z,5.91
2023-02-27T21:00:21.994Z,5.82
2023-02-27T21:02:48.573Z,5.78
2023-02-27T21:05:15.390Z,5.81
2023-02-27T21:07:42.196Z,5.90
2023-02-27T21:10:09.572Z,5.44
2023-02-27T21:12:36.805Z,5.11
2023-02-27T21:15:03.832Z,5.20
2023-02-27T21:17:30.520Z,5.43
2023-02-27T21:19:57.252Z,5.71
2023-02-27T21:22:23.870Z,5.65
2023-02-27T21:24:52.428Z,5.76
2023-02-27T21:27:21.427Z,5.81
2023-02-27T21:29:48.845Z,5.76
2023-02-27T21:32:15.672Z,5.85
2023-02-27T21:34:42.331Z,6.09
2023-02-27T21:37:10.620Z,6.02
2023-02-27T21:39:37.319Z,6.11
2023-02-27T21:42:04.150Z,6.01
2023-02-27T21:44:31.919Z,6.03
2023-02-27T21:46:58.702Z,5.92
2023-02-27T21:49:27.010Z,6.00
2023-02-27T21:51:53.670Z,6.05
2023-02-27T21:54:20.490Z,6.18
2023-02-27T21:56:47.706Z,6.44
2023-02-27T21:59:14.741Z,6.37
2023-02-27T22:01:41.930Z,6.39
2023-02-27T22:04:08.591Z,6.45
2023-02-27T22:06:35.452Z,6.49
2023-02-27T22:09:04.914Z,6.74
2023-02-27T22:11:31.796Z,6.77
2023-02-27T22:13:58.487Z,6.65
2023-02-27T22:16:25.260Z,6.67
2023-02-27T22:18:51.942Z,6.66
2023-02-27T22:21:20.812Z,6.66
2023-02-27T22:23:47.656Z,6.58
2023-02-27T22:26:17.018Z,6.92
2023-02-27T22:28:43.650Z,6.93
2023-02-27T22:31:15.052Z,7.06
2023-02-27T22:33:44.484Z,7.17
2023-02-27T22:36:15.759Z,6.99
2023-02-27T22:38:42.928Z,6.83
2023-02-27T22:41:14.698Z,6.89
2023-02-27T22:43:41.402Z,6.72
2023-02-27T22:46:08.559Z,6.53
2023-02-27T22:48:35.523Z,6.50
2023-02-27T22:51:04.346Z,6.44
2023-02-27T22:53:33.124Z,6.08
2023-02-27T22:55:59.794Z,6.05
2023-02-27T22:58:26.659Z,6.44
2023-02-27T23:00:53.509Z,6.33
2023-02-27T23:03:20.278Z,6.72
2023-02-27T23:05:47.847Z,6.79
2023-02-27T23:08:14.808Z,6.65
2023-02-27T23:10:41.534Z,6.98
2023-02-27T23:13:08.460Z,6.78
2023-02-27T23:15:37.215Z,6.88
2023-02-27T23:18:05.443Z,6.81
2023-02-27T23:20:32.009Z,6.76
2023-02-27T23:22:58.726Z,6.66
2023-02-27T23:25:25.545Z,6.80
2023-02-27T23:27:52.147Z,7.10
2023-02-27T23:30:18.814Z,7.32
2023-02-27T23:32:45.811Z,7.28
2023-02-27T23:35:12.766Z,6.47
2023-02-27T23:37:39.626Z,6.19
2023-02-27T23:40:07.032Z,6.72
2023-02-27T23:42:33.646Z,6.89
2023-02-27T23:45:06.268Z,6.85
2023-02-27T23:47:43.068Z,7.01
2023-02-27T23:50:30.283Z,7.03
2023-02-27T23:52:57.853Z,6.91
2023-02-27T23:55:25.170Z,7.12
2023-02-27T23:57:52.905Z,7.23
